createdAt,value
2019-05-02T00:00:53.040Z,9.27
2019-05-02T00:03:19.967Z,11.40
2019-05-02T00:05:46.064Z,12.00
2019-05-02T00:08:12.195Z,11.47
2019-05-02T00:10:38.379Z,11.63
2019-05-02T00:13:04.658Z,10.87
2019-05-02T00:15:33.122Z,9.90
2019-05-02T00:18:01.418Z,12.67
2019-05-02T00:20:27.163Z,13.13
2019-05-02T00:22:53.460Z,13.80
2019-05-02T00:25:19.565Z,9.57
2019-05-02T00:27:45.735Z,13.10
2019-05-02T00:30:12.836Z,8.93
2019-05-02T00:32:38.803Z,11.10
2019-05-02T00:35:05.270Z,12.13
2019-05-02T00:37:31.115Z,12.73
2019-05-02T00:39:57.194Z,12.50
2019-05-02T00:42:24.116Z,10.53
2019-05-02T00:44:50.197Z,12.83
2019-05-02T00:47:20.674Z,11.97
2019-05-02T00:49:47.336Z,11.33
2019-05-02T00:52:13.382Z,14.50
2019-05-02T00:54:39.210Z,9.87
2019-05-02T00:57:05.036Z,10.40
2019-05-02T00:59:30.952Z,11.60
2019-05-02T01:02:00.019Z,13.00
2019-05-02T01:04:29.081Z,9.00
2019-05-02T01:06:55.469Z,11.20
2019-05-02T01:09:21.502Z,10.43
2019-05-02T01:11:47.546Z,11.73
2019-05-02T01:14:13.527Z,11.63
2019-05-02T01:16:39.406Z,13.50
2019-05-02T01:19:05.366Z,12.50
2019-05-02T01:21:34.039Z,9.67
2019-05-02T01:24:03.022Z,12.67
2019-05-02T01:26:29.459Z,11.50
2019-05-02T01:28:58.377Z,10.67
2019-05-02T01:31:29.293Z,15.33
2019-05-02T01:34:02.940Z,11.90
2019-05-02T01:36:42.929Z,9.57
2019-05-02T01:39:10.748Z,9.00
2019-05-02T01:41:36.831Z,13.23
2019-05-02T01:44:03.393Z,9.87
2019-05-02T01:46:29.282Z,11.27
2019-05-02T01:48:55.227Z,9.83
2019-05-02T01:51:21.085Z,16.27
2019-05-02T01:53:47.012Z,11.23
2019-05-02T01:56:13.064Z,9.87
2019-05-02T01:58:39.231Z,9.03
2019-05-02T02:01:05.398Z,11.47
2019-05-02T02:03:31.421Z,9.30
2019-05-02T02:05:57.328Z,10.43
2019-05-02T02:08:27.266Z,9.90
2019-05-02T02:10:56.474Z,12.87
2019-05-02T02:13:19.348Z,9.43
2019-05-02T02:15:45.329Z,12.23
2019-05-02T02:18:12.589Z,11.70
2019-05-02T02:20:57.131Z,7.73
2019-05-02T02:23:25.085Z,11.37
2019-05-02T02:25:58.747Z,10.37
2019-05-02T02:28:24.624Z,9.67
2019-05-02T02:30:50.572Z,10.57
2019-05-02T02:33:16.675Z,9.90
2019-05-02T02:35:49.621Z,8.73
2019-05-02T02:38:10.587Z,13.17
2019-05-02T02:40:36.497Z,13.43
2019-05-02T02:43:12.822Z,12.93
2019-05-02T02:45:51.956Z,10.70
2019-05-02T02:48:15.427Z,10.40
2019-05-02T02:50:43.227Z,13.37
2019-05-02T02:53:09.270Z,10.37
2019-05-02T02:55:35.109Z,13.17
2019-05-02T02:58:04.689Z,10.97
2019-05-02T03:00:29.024Z,9.53
2019-05-02T03:02:54.970Z,14.77
2019-05-02T03:05:25.897Z,14.27
2019-05-02T03:07:49.175Z,14.43
2019-05-02T03:10:15.116Z,18.23
2019-05-02T03:12:43.283Z,13.77
2019-05-02T03:15:20.845Z,11.17
2019-05-02T03:17:45.451Z,10.07
2019-05-02T03:20:11.511Z,12.43
2019-05-02T03:22:41.917Z,10.20
2019-05-02T03:25:05.558Z,10.60
2019-05-02T03:27:37.999Z,10.43
2019-05-02T03:29:59.487Z,11.33
2019-05-02T03:32:33.412Z,9.80
2019-05-02T03:34:54.301Z,11.30
2019-05-02T03:37:20.541Z,10.00
2019-05-02T03:39:49.456Z,10.20
2019-05-02T03:42:14.444Z,12.37
2019-05-02T03:44:40.485Z,14.57
2019-05-02T03:47:06.740Z,11.30
2019-05-02T03:49:32.830Z,12.40
2019-05-02T03:52:03.028Z,13.17
2019-05-02T03:54:31.841Z,17.80
2019-05-02T03:56:57.993Z,11.47
2019-05-02T03:59:37.235Z,15.57
2019-05-02T04:01:52.754Z,14.13
2019-05-02T04:04:20.621Z,12.13
2019-05-02T04:06:46.579Z,14.20
2019-05-02T04:09:39.083Z,10.93
2019-05-02T04:12:02.607Z,11.37
2019-05-02T04:14:37.672Z,10.93
2019-05-02T04:16:57.654Z,14.53
2019-05-02T04:19:28.715Z,12.93
2019-05-02T04:21:54.985Z,13.90
2019-05-02T04:24:22.410Z,11.03
2019-05-02T04:26:53.655Z,16.70
2019-05-02T04:29:17.788Z,12.23
2019-05-02T04:31:43.921Z,11.47
2019-05-02T04:34:15.136Z,13.70
2019-05-02T04:36:37.849Z,15.10
2019-05-02T04:39:05.987Z,13.60
2019-05-02T04:41:34.299Z,12.10
2019-05-02T04:44:01.585Z,15.17
2019-05-02T04:46:31.211Z,11.87
2019-05-02T04:48:58.769Z,18.60
2019-05-02T04:51:27.443Z,14.87
2019-05-02T04:53:51.824Z,15.87
2019-05-02T04:56:18.672Z,15.43
2019-05-02T04:58:44.687Z,11.97
2019-05-02T05:01:10.759Z,22.17
2019-05-02T05:03:37.628Z,15.10
2019-05-02T05:06:08.013Z,16.03
2019-05-02T05:08:32.123Z,15.37
2019-05-02T05:10:58.355Z,11.47
2019-05-02T05:13:26.488Z,14.17
2019-05-02T05:15:52.224Z,17.93
2019-05-02T05:18:18.154Z,16.43
2019-05-02T05:20:45.929Z,18.33
2019-05-02T05:23:15.691Z,14.33
2019-05-02T05:25:43.384Z,12.87
2019-05-02T05:28:09.377Z,19.23
2019-05-02T05:30:37.666Z,15.30
2019-05-02T05:33:03.513Z,16.90
2019-05-02T05:35:29.551Z,13.07
2019-05-02T05:37:57.251Z,14.47
2019-05-02T05:40:30.334Z,17.03
2019-05-02T05:42:51.065Z,13.03
2019-05-02T05:45:17.452Z,16.50
2019-05-02T05:47:43.379Z,14.40
2019-05-02T05:50:10.021Z,15.30
2019-05-02T05:52:38.842Z,17.73
2019-05-02T05:55:05.191Z,14.20
2019-05-02T05:57:31.164Z,13.20
2019-05-02T05:59:58.422Z,14.47
2019-05-02T06:02:24.631Z,14.17
2019-05-02T06:04:55.186Z,12.03
2019-05-02T06:07:20.174Z,15.97
2019-05-02T06:09:46.125Z,14.43
2019-05-02T06:12:12.047Z,17.50
2019-05-02T06:14:38.189Z,13.73
2019-05-02T06:17:04.290Z,18.63
2019-05-02T06:19:30.240Z,17.90
2019-05-02T06:21:56.271Z,13.97
2019-05-02T06:24:22.142Z,19.50
2019-05-02T06:26:49.919Z,13.67
2019-05-02T06:29:18.705Z,12.97
2019-05-02T06:31:44.467Z,14.40
2019-05-02T06:34:10.452Z,18.17
2019-05-02T06:36:38.015Z,15.40
2019-05-02T06:39:05.376Z,18.70
2019-05-02T06:41:31.354Z,18.30
2019-05-02T06:43:57.229Z,14.13
2019-05-02T06:46:27.828Z,16.87
2019-05-02T06:48:52.258Z,18.20
2019-05-02T06:51:20.850Z,15.53
2019-05-02T06:53:46.953Z,14.80
2019-05-02T06:56:14.298Z,19.00
2019-05-02T06:58:42.084Z,20.67
2019-05-02T07:01:08.170Z,17.93
2019-05-02T07:03:33.989Z,20.77
2019-05-02T07:06:02.855Z,18.30
2019-05-02T07:08:27.959Z,18.77
2019-05-02T07:10:55.986Z,20.83
2019-05-02T07:13:21.986Z,21.00
2019-05-02T07:16:02.100Z,18.13
2019-05-02T07:18:29.930Z,17.63
2019-05-02T07:20:55.875Z,20.30
2019-05-02T07:23:21.774Z,21.43
2019-05-02T07:25:47.833Z,21.23
2019-05-02T07:28:13.670Z,19.53
2019-05-02T07:30:39.625Z,19.37
2019-05-02T07:33:05.485Z,18.00
2019-05-02T07:35:31.442Z,20.57
2019-05-02T07:37:57.387Z,15.83
2019-05-02T07:40:23.520Z,16.37
2019-05-02T07:42:49.563Z,18.30
2019-05-02T07:45:15.589Z,18.87
2019-05-02T07:47:42.470Z,22.53
2019-05-02T07:50:11.811Z,18.13
2019-05-02T07:52:40.945Z,25.00
2019-05-02T07:55:07.392Z,20.03
2019-05-02T07:57:34.001Z,24.67
2019-05-02T08:00:02.445Z,19.63
2019-05-02T08:02:27.853Z,23.70
2019-05-02T08:04:53.897Z,19.93
2019-05-02T08:07:21.249Z,19.40
2019-05-02T08:09:47.666Z,22.33
2019-05-02T08:12:13.730Z,19.57
2019-05-02T08:14:39.627Z,18.60
2019-05-02T08:17:10.592Z,18.10
2019-05-02T08:19:37.549Z,21.50
2019-05-02T08:22:04.666Z,19.63
2019-05-02T08:24:33.051Z,20.80
2019-05-02T08:27:05.011Z,20.87
2019-05-02T08:29:30.937Z,29.70
2019-05-02T08:31:56.937Z,24.77
2019-05-02T08:34:30.426Z,21.00
2019-05-02T08:36:58.862Z,21.27
2019-05-02T08:39:25.972Z,18.40
2019-05-02T08:41:56.430Z,22.60
2019-05-02T08:44:21.742Z,19.97
2019-05-02T08:46:51.422Z,21.53
2019-05-02T08:49:18.806Z,17.93
2019-05-02T08:51:43.731Z,24.37
2019-05-02T08:54:09.811Z,22.50
2019-05-02T08:56:35.892Z,21.63
2019-05-02T08:59:01.924Z,25.30
2019-05-02T09:01:35.004Z,27.47
2019-05-02T09:03:57.053Z,21.47
2019-05-02T09:06:24.188Z,20.30
2019-05-02T09:08:51.357Z,22.23
2019-05-02T09:11:18.205Z,22.73
2019-05-02T09:13:46.014Z,22.70
2019-05-02T09:16:12.137Z,18.43
2019-05-02T09:18:45.883Z,20.30
2019-05-02T09:21:05.986Z,21.33
2019-05-02T09:23:33.155Z,25.10
2019-05-02T09:25:59.791Z,26.93
2019-05-02T09:28:25.729Z,27.80
2019-05-02T09:30:52.413Z,23.27
2019-05-02T09:33:18.518Z,20.80
2019-05-02T09:35:44.485Z,28.10
2019-05-02T09:38:12.489Z,24.57
2019-05-02T09:40:38.036Z,25.07
2019-05-02T09:43:04.817Z,21.00
2019-05-02T09:45:37.207Z,12.87
2019-05-02T09:48:05.235Z,14.63
2019-05-02T09:50:31.428Z,17.10
2019-05-02T09:52:56.475Z,19.13
2019-05-02T09:55:22.744Z,22.40
2019-05-02T09:57:48.686Z,16.90
2019-05-02T10:00:19.579Z,16.27
2019-05-02T10:02:45.663Z,16.73
2019-05-02T10:05:12.701Z,16.83
2019-05-02T10:07:38.559Z,13.63
2019-05-02T10:10:06.959Z,22.60
2019-05-02T10:12:32.795Z,14.70
2019-05-02T10:14:58.668Z,15.30
2019-05-02T10:17:25.330Z,15.63
2019-05-02T10:19:56.762Z,13.60
2019-05-02T10:22:20.200Z,17.70
2019-05-02T10:24:46.218Z,16.87
2019-05-02T10:27:12.635Z,16.77
2019-05-02T10:29:38.637Z,19.00
2019-05-02T10:32:07.700Z,13.07
2019-05-02T10:34:33.023Z,12.63
2019-05-02T10:37:00.399Z,15.13
2019-05-02T10:39:28.496Z,14.23
2019-05-02T10:41:57.441Z,10.20
2019-05-02T10:44:22.709Z,13.07
2019-05-02T10:46:58.658Z,12.33
2019-05-02T10:49:34.524Z,14.17
2019-05-02T10:52:02.507Z,15.50
2019-05-02T10:54:33.685Z,13.67
2019-05-02T10:56:56.000Z,15.73
2019-05-02T10:59:22.155Z,16.93
2019-05-02T11:01:53.102Z,18.80
2019-05-02T11:04:18.997Z,12.67
2019-05-02T11:06:46.270Z,13.53
2019-05-02T11:09:16.720Z,14.73
2019-05-02T11:11:42.532Z,14.73
2019-05-02T11:14:19.455Z,12.33
2019-05-02T11:16:52.284Z,11.23
2019-05-02T11:19:25.793Z,14.13
2019-05-02T11:21:56.301Z,11.50
2019-05-02T11:24:19.448Z,13.57
2019-05-02T11:26:45.457Z,14.87
2019-05-02T11:29:12.144Z,20.67
2019-05-02T11:31:38.180Z,13.37
2019-05-02T11:34:04.270Z,17.20
2019-05-02T11:36:30.123Z,15.67
2019-05-02T11:39:05.101Z,15.30
2019-05-02T11:41:24.066Z,20.83
2019-05-02T11:43:52.448Z,15.50
2019-05-02T11:46:18.335Z,17.57
2019-05-02T11:48:55.591Z,14.90
2019-05-02T11:51:16.236Z,17.10
2019-05-02T11:53:41.958Z,15.20
2019-05-02T11:56:10.662Z,14.53
2019-05-02T11:58:35.430Z,16.73
2019-05-02T12:01:05.081Z,13.90
2019-05-02T12:03:40.011Z,16.43
2019-05-02T12:06:06.642Z,17.23
2019-05-02T12:08:33.857Z,13.43
2019-05-02T12:11:01.232Z,13.03
2019-05-02T12:13:27.582Z,14.33
2019-05-02T12:15:53.561Z,11.77
2019-05-02T12:18:21.164Z,15.47
2019-05-02T12:20:47.831Z,14.60
2019-05-02T12:23:13.772Z,14.53
2019-05-02T12:25:39.742Z,18.57
2019-05-02T12:28:05.830Z,13.77
2019-05-02T12:30:34.085Z,16.23
2019-05-02T12:32:59.613Z,13.27
2019-05-02T12:35:25.918Z,16.17
2019-05-02T12:37:55.154Z,16.93
2019-05-02T12:40:21.622Z,13.97
2019-05-02T12:42:47.564Z,14.00
2019-05-02T12:45:13.892Z,11.23
2019-05-02T12:47:39.962Z,12.10
2019-05-02T12:50:06.195Z,13.70
2019-05-02T12:52:32.154Z,8.83
2019-05-02T12:54:58.031Z,11.77
2019-05-02T12:57:23.956Z,11.43
2019-05-02T12:59:49.819Z,11.50
2019-05-02T13:02:17.728Z,11.80
2019-05-02T13:04:43.807Z,13.93
2019-05-02T13:07:09.760Z,10.43
2019-05-02T13:09:35.667Z,7.85
2019-05-02T13:12:03.724Z,11.75
2019-05-02T13:14:31.905Z,9.75
2019-05-02T13:17:01.200Z,11.50
2019-05-02T13:19:37.228Z,10.88
2019-05-02T13:22:12.617Z,7.97
2019-05-02T13:24:42.229Z,8.23
2019-05-02T13:27:13.137Z,9.98
2019-05-02T13:29:39.226Z,8.23
2019-05-02T13:32:16.933Z,7.80
2019-05-02T13:34:44.009Z,9.65
2019-05-02T13:37:12.399Z,10.90
2019-05-02T13:39:41.925Z,10.03
2019-05-02T13:42:08.191Z,7.75
2019-05-02T13:44:52.795Z,9.88
2019-05-02T13:47:21.835Z,12.23
2019-05-02T13:49:53.821Z,7.57
2019-05-02T13:52:15.874Z,7.80
2019-05-02T13:54:42.653Z,11.93
2019-05-02T13:57:08.713Z,11.20
2019-05-02T13:59:34.835Z,13.75
2019-05-02T14:02:02.712Z,8.15
2019-05-02T14:04:28.915Z,14.33
2019-05-02T14:06:54.763Z,9.90
2019-05-02T14:09:32.381Z,12.53
2019-05-02T14:12:18.687Z,7.58
2019-05-02T14:14:44.755Z,11.48
2019-05-02T14:17:11.729Z,8.20
2019-05-02T14:19:37.671Z,7.85
2019-05-02T14:22:03.662Z,9.23
2019-05-02T14:24:29.742Z,10.45
2019-05-02T14:26:55.567Z,11.03
2019-05-02T14:29:21.829Z,9.48
2019-05-02T14:31:47.867Z,12.28
2019-05-02T14:34:33.823Z,12.00
2019-05-02T14:37:01.945Z,10.32
2019-05-02T14:39:27.745Z,9.75
2019-05-02T14:41:53.707Z,10.90
2019-05-02T14:44:25.228Z,10.75
2019-05-02T14:46:47.537Z,11.20
2019-05-02T14:49:16.675Z,7.50
2019-05-02T14:51:41.759Z,11.05
2019-05-02T14:54:08.573Z,13.78
2019-05-02T14:56:53.445Z,10.03
2019-05-02T14:59:20.333Z,10.85
2019-05-02T15:01:49.597Z,8.73
2019-05-02T15:04:15.694Z,12.18
2019-05-02T15:06:45.372Z,12.03
2019-05-02T15:09:11.942Z,10.58
2019-05-02T15:11:39.305Z,9.68
2019-05-02T15:14:05.379Z,9.50
2019-05-02T15:16:40.506Z,13.20
2019-05-02T15:18:59.672Z,13.93
2019-05-02T15:21:27.434Z,13.78
2019-05-02T15:23:57.635Z,9.70
2019-05-02T15:26:21.352Z,15.98
2019-05-02T15:28:47.287Z,9.58
2019-05-02T15:31:19.069Z,14.55
2019-05-02T15:34:05.809Z,12.10
2019-05-02T15:36:32.368Z,10.20
2019-05-02T15:41:26.402Z,15.08
2019-05-02T15:43:52.495Z,14.47
2019-05-02T15:46:23.874Z,10.55
2019-05-02T15:48:46.153Z,14.00
2019-05-02T15:51:12.460Z,14.37
2019-05-02T15:54:04.820Z,13.63
2019-05-02T15:56:24.369Z,12.97
2019-05-02T15:58:52.224Z,12.17
2019-05-02T16:01:26.075Z,16.17
2019-05-02T16:03:53.866Z,13.63
2019-05-02T16:06:24.294Z,14.80
2019-05-02T16:08:47.914Z,11.03
2019-05-02T16:11:17.038Z,9.18
2019-05-02T16:13:47.077Z,10.43
2019-05-02T16:16:11.000Z,10.55
2019-05-02T16:18:41.097Z,9.60
2019-05-02T16:21:18.427Z,11.45
2019-05-02T16:24:10.912Z,14.07
2019-05-02T16:26:29.860Z,8.78
2019-05-02T16:28:55.746Z,8.35
2019-05-02T16:31:25.222Z,15.58
2019-05-02T16:33:49.874Z,9.20
2019-05-02T16:36:15.767Z,13.73
2019-05-02T16:38:42.463Z,14.03
2019-05-02T16:41:10.179Z,15.90
2019-05-02T16:43:36.662Z,11.70
2019-05-02T16:46:06.631Z,13.23
2019-05-02T16:48:37.422Z,11.57
2019-05-02T16:50:58.478Z,14.07
2019-05-02T16:53:26.161Z,14.17
2019-05-02T16:55:53.712Z,11.50
2019-05-02T16:58:19.744Z,19.37
2019-05-02T17:00:46.015Z,16.23
2019-05-02T17:03:12.662Z,19.30
2019-05-02T17:05:39.311Z,20.83
2019-05-02T17:08:18.918Z,13.03
2019-05-02T17:10:47.210Z,15.27
2019-05-02T17:13:14.256Z,17.67
2019-05-02T17:15:42.707Z,14.90
2019-05-02T17:18:13.420Z,17.63
2019-05-02T17:20:36.633Z,11.80
2019-05-02T17:23:07.265Z,14.70
2019-05-02T17:25:32.206Z,11.50
2019-05-02T17:28:02.466Z,14.43
2019-05-02T17:30:26.292Z,9.90
2019-05-02T17:32:52.289Z,15.77
2019-05-02T17:35:19.313Z,17.60
2019-05-02T17:37:48.807Z,13.77
2019-05-02T17:40:16.922Z,16.00
2019-05-02T17:42:43.235Z,17.40
2019-05-02T17:45:09.874Z,21.70
2019-05-02T17:47:36.515Z,22.03
2019-05-02T17:50:15.535Z,24.40
2019-05-02T17:52:37.601Z,21.33
2019-05-02T17:55:05.056Z,21.97
2019-05-02T17:57:33.499Z,23.30
2019-05-02T17:59:58.769Z,19.93
2019-05-02T18:02:24.691Z,20.33
2019-05-02T18:04:52.032Z,22.50
2019-05-02T18:07:18.331Z,18.40
2019-05-02T18:09:44.279Z,17.73
2019-05-02T18:12:12.735Z,16.20
2019-05-02T18:14:38.193Z,17.90
2019-05-02T18:17:04.275Z,18.83
2019-05-02T18:19:31.631Z,19.17
2019-05-02T18:21:58.241Z,18.17
2019-05-02T18:24:25.562Z,18.30
2019-05-02T18:26:51.741Z,18.63
2019-05-02T18:29:17.896Z,21.27
2019-05-02T18:31:47.401Z,19.37
2019-05-02T18:34:14.263Z,19.97
2019-05-02T18:36:41.628Z,16.17
2019-05-02T18:39:07.602Z,22.70
2019-05-02T18:41:37.281Z,15.47
2019-05-02T18:44:02.830Z,16.57
2019-05-02T18:46:28.902Z,17.97
2019-05-02T18:48:54.914Z,17.27
2019-05-02T18:51:21.845Z,15.00
2019-05-02T18:53:48.082Z,15.13
2019-05-02T18:56:14.059Z,12.90
2019-05-02T18:58:41.556Z,15.90
2019-05-02T19:01:12.961Z,16.43
2019-05-02T19:03:36.099Z,22.63
2019-05-02T19:06:03.235Z,15.87
2019-05-02T19:08:45.260Z,16.80
2019-05-02T19:11:10.026Z,19.67
2019-05-02T19:13:32.150Z,16.10
2019-05-02T19:15:56.760Z,20.80
2019-05-02T19:18:22.759Z,20.53
2019-05-02T19:20:57.163Z,16.83
2019-05-02T19:23:22.482Z,17.10
2019-05-02T19:25:48.328Z,20.20
2019-05-02T19:28:16.442Z,31.37
2019-05-02T19:30:42.593Z,23.53
2019-05-02T19:33:11.998Z,21.17
2019-05-02T19:35:43.130Z,19.23
2019-05-02T19:38:05.728Z,20.13
2019-05-02T19:40:31.899Z,15.93
2019-05-02T19:43:05.911Z,18.80
2019-05-02T19:45:25.659Z,13.27
2019-05-02T19:47:54.283Z,15.57
2019-05-02T19:50:32.250Z,17.30
2019-05-02T19:53:01.998Z,13.30
2019-05-02T19:55:27.467Z,17.57
2019-05-02T19:57:56.697Z,13.23
2019-05-02T20:00:21.839Z,12.50
2019-05-02T20:02:47.819Z,14.57
2019-05-02T20:05:16.462Z,14.13
2019-05-02T20:07:42.723Z,13.60
2019-05-02T20:10:09.331Z,16.47
2019-05-02T20:12:35.340Z,13.03
2019-05-02T20:15:01.628Z,16.33
2019-05-02T20:17:27.686Z,14.67
2019-05-02T20:19:57.890Z,13.20
2019-05-02T20:22:23.608Z,18.37
2019-05-02T20:24:58.300Z,14.27
2019-05-02T20:27:22.436Z,14.83
2019-05-02T20:29:48.673Z,14.53
2019-05-02T20:32:14.617Z,12.60
2019-05-02T20:34:41.873Z,13.37
2019-05-02T20:37:07.990Z,12.20
2019-05-02T20:39:33.981Z,14.67
2019-05-02T20:41:59.979Z,13.70
2019-05-02T20:44:25.845Z,13.53
2019-05-02T20:46:51.807Z,14.70
2019-05-02T20:49:17.687Z,13.73
2019-05-02T20:51:43.765Z,13.43
2019-05-02T20:54:09.790Z,12.70
2019-05-02T20:56:35.833Z,16.27
2019-05-02T20:59:02.120Z,13.17
2019-05-02T21:01:28.110Z,11.67
2019-05-02T21:03:54.106Z,13.77
2019-05-02T21:06:37.590Z,11.87
2019-05-02T21:08:54.882Z,13.40
2019-05-02T21:11:22.289Z,15.10
2019-05-02T21:13:48.254Z,13.83
2019-05-02T21:16:14.210Z,13.67
2019-05-02T21:18:42.101Z,10.43
2019-05-02T21:21:08.053Z,13.07
2019-05-02T21:23:43.843Z,12.30
2019-05-02T21:26:02.021Z,13.33
2019-05-02T21:28:28.043Z,11.67
2019-05-02T21:30:54.124Z,13.93
2019-05-02T21:33:31.927Z,11.73
2019-05-02T21:35:57.735Z,13.30
2019-05-02T21:38:23.589Z,10.10
2019-05-02T21:40:49.423Z,11.87
2019-05-02T21:43:15.358Z,16.83
2019-05-02T21:45:42.205Z,14.30
2019-05-02T21:48:08.199Z,11.30
2019-05-02T21:50:38.830Z,12.93
2019-05-02T21:53:06.578Z,11.93
2019-05-02T21:55:37.619Z,14.37
2019-05-02T21:58:03.881Z,11.93
2019-05-02T22:00:50.290Z,13.33
2019-05-02T22:03:16.529Z,13.53
2019-05-02T22:05:43.403Z,10.80
2019-05-02T22:08:09.596Z,12.83
2019-05-02T22:10:35.597Z,11.87
2019-05-02T22:13:02.129Z,13.47
2019-05-02T22:15:28.142Z,11.17
2019-05-02T22:17:54.108Z,13.60
2019-05-02T22:20:20.156Z,13.37
2019-05-02T22:22:46.093Z,14.03
2019-05-02T22:25:12.318Z,12.60
2019-05-02T22:27:38.249Z,15.03
2019-05-02T22:30:05.779Z,12.87
2019-05-02T22:32:32.183Z,13.13
2019-05-02T22:34:58.126Z,14.50
2019-05-02T22:37:25.151Z,15.20
2019-05-02T22:39:55.920Z,13.23
2019-05-02T22:42:22.038Z,16.20
2019-05-02T22:44:48.134Z,11.27
2019-05-02T22:47:14.224Z,15.60
2019-05-02T22:49:40.054Z,14.77
2019-05-02T22:52:06.100Z,13.10
2019-05-02T22:54:33.926Z,14.43
2019-05-02T22:56:59.862Z,14.00
2019-05-02T22:59:26.752Z,14.23
2019-05-02T23:01:52.915Z,16.13
2019-05-02T23:04:18.739Z,9.97
2019-05-02T23:06:45.244Z,13.00
2019-05-02T23:09:12.704Z,14.33
2019-05-02T23:11:38.883Z,15.07
2019-05-02T23:14:04.982Z,15.33
2019-05-02T23:16:32.256Z,14.93
2019-05-02T23:18:59.947Z,13.70
2019-05-02T23:21:26.027Z,12.50
2019-05-02T23:23:52.344Z,13.40
2019-05-02T23:26:29.147Z,15.47
2019-05-02T23:28:59.631Z,14.43
2019-05-02T23:31:25.588Z,15.23
2019-05-02T23:33:57.618Z,17.80
2019-05-02T23:36:25.078Z,15.80
2019-05-02T23:38:52.206Z,17.73
2019-05-02T23:41:18.330Z,16.33
2019-05-02T23:43:44.380Z,17.00
2019-05-02T23:46:11.631Z,16.97
2019-05-02T23:48:37.649Z,18.63
2019-05-02T23:51:03.682Z,17.93
2019-05-02T23:53:31.477Z,14.67
2019-05-02T23:55:57.276Z,18.27
2019-05-02T23:58:23.248Z,19.20
